createdAt,value
2022-10-11T00:01:11.527Z,100019.75
2022-10-11T00:04:00.479Z,100018.44
2022-10-11T00:06:48.060Z,100016.84
2022-10-11T00:09:35.727Z,100018.69
2022-10-11T00:12:23.230Z,100019.47
2022-10-11T00:15:15.266Z,100022.13
2022-10-11T00:18:05.391Z,100024.22
2022-10-11T00:21:03.223Z,100025.00
2022-10-11T00:23:52.035Z,100026.31
2022-10-11T00:26:43.233Z,100030.50
2022-10-11T00:29:33.460Z,100035.22
2022-10-11T00:32:21.114Z,100034.69
2022-10-11T00:35:10.341Z,100035.72
2022-10-11T00:37:59.254Z,100035.97
2022-10-11T00:40:47.320Z,100035.19
2022-10-11T00:43:35.095Z,100038.84
2022-10-11T00:46:31.925Z,100042.53
2022-10-11T00:49:28.171Z,100045.16
2022-10-11T00:52:29.001Z,100044.34
2022-10-11T00:55:22.096Z,100044.59
2022-10-11T00:58:10.646Z,100046.16
2022-10-11T01:00:58.255Z,100048.53
2022-10-11T01:03:46.188Z,100048.22
2022-10-11T01:06:35.862Z,100055.06
2022-10-11T01:09:24.192Z,100050.84
2022-10-11T01:12:20.007Z,100047.44
2022-10-11T01:15:17.882Z,100056.91
2022-10-11T01:18:11.797Z,100051.41
2022-10-11T01:21:08.268Z,100052.97
2022-10-11T01:24:35.963Z,100054.78
2022-10-11T01:27:47.696Z,100062.16
2022-10-11T01:30:38.297Z,100060.59
2022-10-11T01:33:32.752Z,100050.84
2022-10-11T01:36:29.357Z,100058.72
2022-10-11T01:39:25.587Z,100056.09
2022-10-11T01:42:14.906Z,100054.28
2022-10-11T01:45:02.545Z,100055.06
2022-10-11T01:48:04.725Z,100053.22
2022-10-11T01:50:54.354Z,100054.28
2022-10-11T01:54:14.514Z,100057.72
2022-10-11T01:57:35.076Z,100057.97
2022-10-11T02:00:25.009Z,100062.41
2022-10-11T02:03:24.456Z,100052.69
2022-10-11T02:06:18.744Z,100061.59
2022-10-11T02:09:16.183Z,100065.03
2022-10-11T02:12:08.940Z,100065.53
2022-10-11T02:14:58.872Z,100069.75
2022-10-11T02:17:50.269Z,100070.25
2022-10-11T02:20:41.771Z,100073.91
2022-10-11T02:23:33.971Z,100072.25
2022-10-11T02:26:22.681Z,100084.06
2022-10-11T02:29:13.644Z,100090.59
2022-10-11T02:32:02.732Z,100089.50
2022-10-11T02:34:55.493Z,100086.34
2022-10-11T02:37:53.377Z,100086.53
2022-10-11T02:40:47.803Z,100092.00
2022-10-11T02:43:41.865Z,100096.72
2022-10-11T02:46:31.261Z,100091.91
2022-10-11T02:49:19.923Z,100095.59
2022-10-11T02:52:08.127Z,100102.66
2022-10-11T02:54:57.450Z,100106.91
2022-10-11T02:57:45.059Z,100102.41
2022-10-11T03:00:33.009Z,100107.16
2022-10-11T03:03:20.556Z,100102.38
2022-10-11T03:06:09.405Z,100103.19
2022-10-11T03:08:56.757Z,100111.31
2022-10-11T03:11:45.592Z,100111.31
2022-10-11T03:14:33.227Z,100118.63
2022-10-11T03:17:35.588Z,100115.44
2022-10-11T03:20:24.475Z,100114.34
2022-10-11T03:23:12.885Z,100121.47
2022-10-11T03:26:01.284Z,100115.66
2022-10-11T03:28:54.388Z,100120.34
2022-10-11T03:31:42.064Z,100122.69
2022-10-11T03:34:29.711Z,100128.41
2022-10-11T03:37:17.252Z,100134.97
2022-10-11T03:40:06.245Z,100140.69
2022-10-11T03:42:55.067Z,100134.34
2022-10-11T03:45:45.630Z,100141.66
2022-10-11T03:48:33.489Z,100133.44
2022-10-11T03:51:21.942Z,100136.50
2022-10-11T03:54:09.550Z,100138.75
2022-10-11T03:57:27.729Z,100139.91
2022-10-11T04:38:01.674Z,100168.75
2022-10-11T04:41:24.937Z,100174.19
2022-10-11T04:45:18.190Z,100184.13
2022-10-11T04:49:05.147Z,100187.44
2022-10-11T04:52:21.106Z,100188.84
2022-10-11T04:56:15.830Z,100206.13
2022-10-11T04:59:53.630Z,100201.91
2022-10-11T05:02:49.331Z,100207.28
2022-10-11T05:05:53.449Z,100209.09
2022-10-11T05:12:58.093Z,100209.72
2022-10-11T05:16:13.623Z,100217.78
2022-10-11T05:19:09.865Z,100226.31
2022-10-11T05:22:42.852Z,100239.06
2022-10-11T05:26:12.737Z,100236.44
2022-10-11T05:29:28.512Z,100241.78
2022-10-11T05:33:13.349Z,100234.16
2022-10-11T05:36:33.389Z,100247.72
2022-10-11T05:39:32.995Z,100259.41
2022-10-11T05:42:45.148Z,100264.19
2022-10-11T05:45:48.672Z,100262.03
2022-10-11T05:49:46.551Z,100265.53
2022-10-11T05:53:35.278Z,100274.19
2022-10-11T05:57:04.779Z,100279.78
2022-10-11T06:00:13.628Z,100277.25
2022-10-11T06:03:06.467Z,100271.91
2022-10-11T06:06:08.462Z,100279.41
2022-10-11T06:09:43.102Z,100283.06
2022-10-11T06:16:57.221Z,100300.44
2022-10-11T06:20:50.382Z,100310.28
2022-10-11T06:28:09.878Z,100317.59
2022-10-11T06:30:53.225Z,100314.97
2022-10-11T06:33:58.761Z,100313.81
2022-10-11T06:39:34.801Z,100324.94
2022-10-11T06:42:41.305Z,100324.13
2022-10-11T06:45:37.101Z,100320.16
2022-10-11T06:51:45.532Z,100324.94
2022-10-11T06:54:20.724Z,100330.25
2022-10-11T06:57:54.773Z,100332.88
2022-10-11T07:01:36.673Z,100333.09
2022-10-11T07:04:17.835Z,100348.91
2022-10-11T07:10:27.416Z,100343.00
2022-10-11T07:16:36.163Z,100361.16
2022-10-11T07:19:16.678Z,100359.13
2022-10-11T07:21:50.835Z,100369.00
2022-10-11T07:24:51.697Z,100361.38
2022-10-11T07:27:26.846Z,100357.53
2022-10-11T07:30:09.966Z,100356.31
2022-10-11T07:34:06.037Z,100367.41
2022-10-11T07:43:56.000Z,100367.91
2022-10-11T07:46:26.018Z,100363.16
2022-10-11T07:48:59.603Z,100373.28
2022-10-11T07:51:34.659Z,100365.59
2022-10-11T07:54:08.752Z,100374.91
2022-10-11T07:56:40.281Z,100369.00
2022-10-11T08:02:50.847Z,100379.59
2022-10-11T08:05:23.916Z,100380.50
2022-10-11T08:07:57.132Z,100378.91
2022-10-11T08:10:27.023Z,100376.28
2022-10-11T08:13:26.137Z,100386.28
2022-10-11T08:16:07.549Z,100384.50
2022-10-11T08:18:41.642Z,100390.03
2022-10-11T08:21:20.399Z,100389.16
2022-10-11T08:24:00.597Z,100394.56
2022-10-11T08:26:39.359Z,100399.78
2022-10-11T08:29:13.501Z,100393.09
2022-10-11T08:31:57.801Z,100391.59
2022-10-11T08:35:48.771Z,100389.44
2022-10-11T08:38:22.576Z,100390.78
2022-10-11T08:41:02.786Z,100389.09
2022-10-11T08:44:58.178Z,100386.25
2022-10-11T08:47:44.377Z,100393.56
2022-10-11T09:08:42.024Z,100401.66
2022-10-11T09:11:44.380Z,100405.25
2022-10-11T09:18:56.979Z,100402.78
2022-10-11T09:21:56.639Z,100399.94
2022-10-11T09:24:38.250Z,100393.88
2022-10-11T09:27:25.896Z,100396.69
2022-10-11T09:30:14.554Z,100399.81
2022-10-11T09:32:47.091Z,100394.56
2022-10-11T09:35:19.493Z,100399.31
2022-10-11T09:38:00.592Z,100396.22
2022-10-11T09:40:44.723Z,100404.66
2022-10-11T09:43:14.343Z,100398.38
2022-10-11T09:45:49.294Z,100403.06
2022-10-11T09:48:24.476Z,100390.84
2022-10-11T09:50:56.209Z,100391.69
2022-10-11T09:53:57.148Z,100397.22
2022-10-11T09:56:28.945Z,100404.19
2022-10-11T09:59:27.453Z,100389.75
2022-10-11T10:02:24.828Z,100393.72
2022-10-11T10:05:16.144Z,100397.50
2022-10-11T10:08:05.495Z,100392.81
2022-10-11T10:10:42.368Z,100388.19
2022-10-11T10:13:22.876Z,100382.69
2022-10-11T10:15:54.049Z,100382.47
2022-10-11T10:18:28.638Z,100381.16
2022-10-11T10:21:00.598Z,100380.16
2022-10-11T10:23:32.508Z,100376.22
2022-10-11T10:26:16.942Z,100380.41
2022-10-11T10:29:20.098Z,100373.06
2022-10-11T10:34:59.483Z,100371.91
2022-10-11T10:37:33.989Z,100375.13
2022-10-11T10:40:08.261Z,100371.97
2022-10-11T10:42:39.286Z,100377.00
2022-10-11T10:45:20.858Z,100379.13
2022-10-11T10:48:17.308Z,100380.16
2022-10-11T10:50:56.343Z,100377.00
2022-10-11T10:53:34.195Z,100380.75
2022-10-11T10:56:11.841Z,100376.31
2022-10-11T10:59:16.128Z,100376.84
2022-10-11T11:01:57.136Z,100370.03
2022-10-11T11:04:32.210Z,100371.63
2022-10-11T11:07:11.032Z,100373.75
2022-10-11T11:09:51.277Z,100372.41
2022-10-11T11:12:35.811Z,100365.56
2022-10-11T11:15:13.171Z,100365.59
2022-10-11T11:18:00.167Z,100363.22
2022-10-11T11:20:48.297Z,100354.53
2022-10-11T11:23:27.214Z,100364.03
2022-10-11T11:26:07.971Z,100352.66
2022-10-11T11:28:57.164Z,100359.25
2022-10-11T11:31:55.456Z,100354.47
2022-10-11T11:34:27.986Z,100353.91
2022-10-11T11:37:01.769Z,100347.03
2022-10-11T11:39:36.203Z,100344.63
2022-10-11T11:42:10.134Z,100336.44
2022-10-11T11:44:42.766Z,100336.44
2022-10-11T11:47:21.509Z,100329.53
2022-10-11T11:49:57.167Z,100339.88
2022-10-11T11:52:32.122Z,100339.88
2022-10-11T11:55:10.639Z,100342.78
2022-10-11T11:57:55.325Z,100326.38
2022-10-11T12:00:28.198Z,100329.56
2022-10-11T12:03:01.954Z,100324.00
2022-10-11T12:05:36.011Z,100320.03
2022-10-11T12:08:08.396Z,100328.47
2022-10-11T12:10:39.932Z,100325.25
2022-10-11T12:13:20.885Z,100323.97
2022-10-11T12:16:10.862Z,100321.63
2022-10-11T12:18:53.792Z,100323.22
2022-10-11T12:21:31.862Z,100325.09
2022-10-11T12:24:02.644Z,100312.66
2022-10-11T12:26:45.614Z,100311.63
2022-10-11T12:29:47.713Z,100316.97
2022-10-11T12:32:54.776Z,100308.56
2022-10-11T12:36:02.702Z,100306.44
2022-10-11T12:38:39.761Z,100303.28
2022-10-11T12:41:51.201Z,100295.88
2022-10-11T12:44:26.337Z,100296.94
2022-10-11T12:47:32.924Z,100299.88
2022-10-11T12:50:19.395Z,100294.06
2022-10-11T12:52:59.295Z,100290.63
2022-10-11T12:55:40.092Z,100292.47
2022-10-11T12:58:31.111Z,100284.78
2022-10-11T13:01:22.144Z,100284.81
2022-10-11T13:04:06.452Z,100285.84
2022-10-11T13:06:39.770Z,100282.16
2022-10-11T13:09:22.299Z,100295.38
2022-10-11T13:11:56.152Z,100295.09
2022-10-11T13:14:28.005Z,100289.75
2022-10-11T13:17:08.767Z,100291.09
2022-10-11T13:22:21.612Z,100289.97
2022-10-11T13:24:52.082Z,100285.75
2022-10-11T13:27:24.670Z,100289.91
2022-10-11T13:29:59.311Z,100281.44
2022-10-11T13:32:32.207Z,100278.75
2022-10-11T13:35:04.924Z,100280.34
2022-10-11T13:37:43.792Z,100278.28
2022-10-11T13:40:17.719Z,100268.25
2022-10-11T13:42:48.561Z,100277.47
2022-10-11T13:45:22.299Z,100274.84
2022-10-11T13:47:52.961Z,100270.59
2022-10-11T13:50:30.706Z,100268.47
2022-10-11T13:53:03.589Z,100271.34
2022-10-11T13:55:37.066Z,100265.00
2022-10-11T13:58:18.533Z,100269.50
2022-10-11T14:00:56.470Z,100262.34
2022-10-11T14:03:38.770Z,100264.47
2022-10-11T14:06:08.987Z,100271.06
2022-10-11T14:08:41.045Z,100258.16
2022-10-11T14:11:14.300Z,100261.00
2022-10-11T14:13:46.328Z,100268.13
2022-10-11T14:16:31.373Z,100264.13
2022-10-11T14:19:11.793Z,100263.31
2022-10-11T14:21:52.492Z,100268.84
2022-10-11T14:24:22.739Z,100268.03
2022-10-11T14:26:56.284Z,100258.56
2022-10-11T14:29:29.318Z,100255.38
2022-10-11T14:32:05.241Z,100264.88
2022-10-11T14:34:35.863Z,100270.66
2022-10-11T14:37:05.461Z,100267.72
2022-10-11T14:39:34.938Z,100260.06
2022-10-11T14:42:05.979Z,100271.63
2022-10-11T14:44:34.971Z,100269.50
2022-10-11T14:47:06.634Z,100266.34
2022-10-11T14:49:38.740Z,100267.66
2022-10-11T14:52:11.580Z,100269.22
2022-10-11T14:54:40.986Z,100270.53
2022-10-11T14:57:14.034Z,100276.31
2022-10-11T14:59:43.143Z,100272.09
2022-10-11T15:02:13.212Z,100263.88
2022-10-11T15:04:42.381Z,100264.09
2022-10-11T15:07:13.497Z,100266.69
2022-10-11T15:09:42.944Z,100263.22
2022-10-11T15:12:13.391Z,100261.84
2022-10-11T15:14:42.726Z,100263.41
2022-10-11T15:17:13.812Z,100262.59
2022-10-11T15:19:42.966Z,100257.09
2022-10-11T15:22:12.262Z,100255.00
2022-10-11T15:24:41.969Z,100252.63
2022-10-11T15:27:12.486Z,100255.56
2022-10-11T15:29:41.603Z,100247.91
2022-10-11T15:32:10.780Z,100252.13
2022-10-11T15:34:39.881Z,100248.19
2022-10-11T15:37:09.073Z,100255.50
2022-10-11T15:39:38.218Z,100252.56
2022-10-11T15:42:08.125Z,100258.03
2022-10-11T15:44:38.575Z,100238.50
2022-10-11T15:47:07.780Z,100255.09
2022-10-11T15:49:36.885Z,100254.84
2022-10-11T15:52:06.192Z,100249.09
2022-10-11T15:54:35.294Z,100254.34
2022-10-11T15:57:04.578Z,100250.69
2022-10-11T15:59:33.593Z,100245.41
2022-10-11T16:02:04.073Z,100253.31
2022-10-11T16:04:33.129Z,100250.69
2022-10-11T16:07:02.116Z,100251.47
2022-10-11T16:09:31.146Z,100246.47
2022-10-11T16:12:00.193Z,100252.78
2022-10-11T16:14:31.559Z,100260.69
2022-10-11T16:17:03.583Z,100259.88
2022-10-11T16:19:33.945Z,100260.69
2022-10-11T16:22:02.939Z,100260.69
2022-10-11T16:24:32.021Z,100263.31
2022-10-11T16:27:01.123Z,100252.47
2022-10-11T16:29:30.267Z,100263.00
2022-10-11T16:31:59.287Z,100253.78
2022-10-11T16:34:28.271Z,100251.41
2022-10-11T16:36:58.657Z,100252.19
2022-10-11T16:39:28.097Z,100264.00
2022-10-11T16:41:57.192Z,100262.41
2022-10-11T16:44:27.783Z,100260.28
2022-10-11T16:46:57.421Z,100267.41
2022-10-11T16:49:29.220Z,100268.66
2022-10-11T16:52:00.299Z,100273.66
2022-10-11T16:54:30.323Z,100269.94
2022-10-11T16:57:00.518Z,100264.63
2022-10-11T16:59:29.588Z,100270.34
2022-10-11T17:01:58.703Z,100270.84
2022-10-11T17:04:27.963Z,100266.88
2022-10-11T17:06:58.150Z,100266.34
2022-10-11T17:09:28.875Z,100263.41
2022-10-11T17:11:57.892Z,100259.94
2022-10-11T17:14:26.880Z,100255.19
2022-10-11T17:16:55.907Z,100262.22
2022-10-11T17:19:24.864Z,100267.41
2022-10-11T17:21:53.853Z,100273.44
2022-10-11T17:24:22.895Z,100277.56
2022-10-11T17:26:53.348Z,100270.97
2022-10-11T17:29:24.089Z,100270.44
2022-10-11T17:31:53.508Z,100265.69
2022-10-11T17:34:22.775Z,100274.06
2022-10-11T17:36:51.895Z,100270.34
2022-10-11T17:39:23.389Z,100267.16
2022-10-11T17:41:54.852Z,100262.16
2022-10-11T17:44:23.988Z,100263.97
2022-10-11T17:46:53.096Z,100265.25
2022-10-11T17:49:22.077Z,100262.09
2022-10-11T17:51:51.133Z,100271.25
2022-10-11T17:54:20.130Z,100270.16
2022-10-11T17:56:50.317Z,100268.00
2022-10-11T17:59:22.384Z,100275.34
2022-10-11T18:01:52.030Z,100274.78
2022-10-11T18:04:22.164Z,100267.41
2022-10-11T18:06:51.553Z,100272.56
2022-10-11T18:09:21.724Z,100270.44
2022-10-11T18:11:51.347Z,100278.78
2022-10-11T18:14:21.881Z,100277.69
2022-10-11T18:16:51.059Z,100281.28
2022-10-11T18:19:20.074Z,100289.03
2022-10-11T18:21:49.102Z,100286.34
2022-10-11T18:24:18.575Z,100279.72
2022-10-11T18:26:48.018Z,100280.22
2022-10-11T18:29:17.286Z,100280.47
2022-10-11T18:31:47.708Z,100272.03
2022-10-11T18:34:16.738Z,100275.94
2022-10-11T18:36:45.756Z,100274.56
2022-10-11T18:39:16.108Z,100273.47
2022-10-11T18:41:45.401Z,100275.47
2022-10-11T18:44:16.705Z,100276.69
2022-10-11T18:46:48.552Z,100287.66
2022-10-11T18:49:18.299Z,100283.91
2022-10-11T18:51:48.793Z,100288.38
2022-10-11T18:54:21.136Z,100287.03
2022-10-11T18:56:50.831Z,100281.44
2022-10-11T18:59:20.325Z,100299.00
2022-10-11T19:01:52.350Z,100294.72
2022-10-11T19:04:21.897Z,100299.06
2022-10-11T19:06:53.292Z,100295.31
2022-10-11T19:09:26.263Z,100291.81
2022-10-11T19:11:57.370Z,100292.53
2022-10-11T19:14:30.227Z,100283.31
2022-10-11T19:17:01.129Z,100281.50
2022-10-11T19:19:32.826Z,100279.91
2022-10-11T19:22:03.379Z,100281.63
2022-10-11T19:24:33.745Z,100289.19
2022-10-11T19:27:03.181Z,100281.47
2022-10-11T19:29:33.100Z,100279.06
2022-10-11T19:32:04.493Z,100277.72
2022-10-11T19:34:33.570Z,100279.81
2022-10-11T19:37:04.052Z,100278.44
2022-10-11T19:39:33.384Z,100271.06
2022-10-11T19:42:04.313Z,100275.16
2022-10-11T19:44:37.157Z,100272.25
2022-10-11T19:47:10.177Z,100271.44
2022-10-11T19:49:39.246Z,100269.84
2022-10-11T19:52:09.550Z,100279.53
2022-10-11T19:54:38.499Z,100277.13
2022-10-11T19:57:08.812Z,100275.56
2022-10-11T19:59:37.855Z,100269.66
2022-10-11T20:02:07.107Z,100278.47
2022-10-11T20:04:55.760Z,100272.75
2022-10-11T20:07:43.411Z,100276.53
2022-10-11T20:10:30.671Z,100282.50
2022-10-11T20:13:18.137Z,100278.19
2022-10-11T20:16:08.080Z,100283.09
2022-10-11T20:18:58.327Z,100289.59
2022-10-11T20:21:47.163Z,100287.66
2022-10-11T20:24:34.709Z,100287.13
2022-10-11T20:27:23.005Z,100294.97
2022-10-11T20:30:13.940Z,100291.19
2022-10-11T20:33:01.197Z,100286.44
2022-10-11T20:35:59.387Z,100301.47
2022-10-11T20:38:51.111Z,100286.69
2022-10-11T20:41:40.365Z,100299.66
2022-10-11T20:44:27.927Z,100299.34
2022-10-11T20:47:15.174Z,100302.41
2022-10-11T20:50:02.725Z,100299.44
2022-10-11T20:52:50.403Z,100296.81
2022-10-11T20:55:39.078Z,100297.06
2022-10-11T20:58:26.709Z,100301.28
2022-10-11T21:01:17.487Z,100302.28
2022-10-11T21:04:07.400Z,100292.63
2022-10-11T21:06:54.848Z,100301.06
2022-10-11T21:09:42.173Z,100299.44
2022-10-11T21:12:31.173Z,100296.72
2022-10-11T21:15:19.207Z,100297.88
2022-10-11T21:18:06.734Z,100297.78
2022-10-11T21:20:54.162Z,100299.81
2022-10-11T21:23:42.269Z,100296.59
2022-10-11T21:26:31.049Z,100298.41
2022-10-11T21:29:20.182Z,100298.06
2022-10-11T21:32:10.828Z,100298.88
2022-10-11T21:35:00.963Z,100294.91
2022-10-11T21:37:48.159Z,100294.00
2022-10-11T21:40:40.301Z,100290.44
2022-10-11T21:43:27.605Z,100295.91
2022-10-11T21:46:19.912Z,100285.47
2022-10-11T21:49:07.522Z,100284.66
2022-10-11T21:51:55.237Z,100286.47
2022-10-11T21:54:42.541Z,100280.78
2022-10-11T21:57:29.755Z,100275.56
2022-10-11T22:00:17.101Z,100279.97
2022-10-11T22:03:05.774Z,100276.13
2022-10-11T22:05:53.416Z,100271.44
2022-10-11T22:08:41.533Z,100270.44
2022-10-11T22:11:28.963Z,100269.66
2022-10-11T22:14:17.477Z,100269.88
2022-10-11T22:17:05.035Z,100272.47
2022-10-11T22:19:53.766Z,100269.28
2022-10-11T22:22:41.258Z,100266.00
2022-10-11T22:25:28.546Z,100266.94
2022-10-11T22:28:16.138Z,100263.38
2022-10-11T22:31:03.860Z,100263.50
2022-10-11T22:33:55.006Z,100257.69
2022-10-11T22:36:43.633Z,100261.22
2022-10-11T22:39:31.412Z,100261.91
2022-10-11T22:42:19.013Z,100255.75
2022-10-11T22:45:07.684Z,100257.09
2022-10-11T22:47:55.255Z,100265.97
2022-10-11T22:50:42.636Z,100257.91
2022-10-11T22:53:31.652Z,100256.66
2022-10-11T22:56:19.087Z,100247.00
2022-10-11T22:59:06.279Z,100262.25
2022-10-11T23:01:53.651Z,100250.16
2022-10-11T23:04:41.077Z,100257.78
2022-10-11T23:07:28.417Z,100254.13
2022-10-11T23:10:17.628Z,100255.75
2022-10-11T23:13:05.436Z,100249.41
2022-10-11T23:15:53.171Z,100233.94
2022-10-11T23:18:40.952Z,100245.16
2022-10-11T23:21:28.279Z,100239.50
2022-10-11T23:24:15.756Z,100238.00
2022-10-11T23:27:04.955Z,100234.63
2022-10-11T23:29:52.309Z,100234.03
2022-10-11T23:32:39.502Z,100233.25
2022-10-11T23:39:06.527Z,100237.69
2022-10-11T23:41:54.237Z,100242.69
2022-10-11T23:44:43.137Z,100234.03
2022-10-11T23:47:30.907Z,100240.09
2022-10-11T23:50:18.567Z,100237.09
2022-10-11T23:53:06.266Z,100247.78
2022-10-11T23:55:53.527Z,100245.63
2022-10-11T23:58:41.310Z,100240.06
